sensor_id;sensor_type;location;lat;lon;timestamp;P1;durP1;ratioP1;P2;durP2;ratioP2
79126;SDS011;68528;48.814;8.904;2023-10-19T00:01:16;7.07;;;4.82;;
79126;SDS011;68528;48.814;8.904;2023-10-19T00:04:01;9.10;;;5.43;;
79126;SDS011;68528;48.814;8.904;2023-10-19T00:06:26;9.18;;;6.07;;
79126;SDS011;68528;48.814;8.904;2023-10-19T00:08:52;8.52;;;5.72;;
79126;SDS011;68528;48.814;8.904;2023-10-19T00:11:17;8.07;;;5.50;;
79126;SDS011;68528;48.814;8.904;2023-10-19T00:14:34;6.50;;;5.13;;
79126;SDS011;68528;48.814;8.904;2023-10-19T00:17:25;7.93;;;5.47;;
79126;SDS011;68528;48.814;8.904;2023-10-19T00:19:52;9.90;;;5.15;;
79126;SDS011;68528;48.814;8.904;2023-10-19T00:22:36;8.00;;;5.43;;
79126;SDS011;68528;48.814;8.904;2023-10-19T00:25:01;6.70;;;4.80;;
79126;SDS011;68528;48.814;8.904;2023-10-19T00:27:29;10.95;;;5.82;;
79126;SDS011;68528;48.814;8.904;2023-10-19T00:29:54;7.70;;;4.87;;
79126;SDS011;68528;48.814;8.904;2023-10-19T00:32:42;8.52;;;4.70;;
79126;SDS011;68528;48.814;8.904;2023-10-19T00:35:13;7.90;;;5.22;;
79126;SDS011;68528;48.814;8.904;2023-10-19T00:37:59;9.43;;;5.35;;
79126;SDS011;68528;48.814;8.904;2023-10-19T00:40:50;8.65;;;5.78;;
79126;SDS011;68528;48.814;8.904;2023-10-19T00:43:28;9.95;;;5.80;;
79126;SDS011;68528;48.814;8.904;2023-10-19T00:48:25;8.27;;;4.43;;
79126;SDS011;68528;48.814;8.904;2023-10-19T00:54:16;8.18;;;4.97;;
79126;SDS011;68528;48.814;8.904;2023-10-19T00:57:23;6.70;;;4.63;;
79126;SDS011;68528;48.814;8.904;2023-10-19T00:59:59;8.13;;;4.75;;
79126;SDS011;68528;48.814;8.904;2023-10-19T01:02:37;7.53;;;4.53;;
79126;SDS011;68528;48.814;8.904;2023-10-19T01:05:11;8.38;;;4.43;;
79126;SDS011;68528;48.814;8.904;2023-10-19T01:07:55;9.27;;;4.20;;
79126;SDS011;68528;48.814;8.904;2023-10-19T01:13:27;8.52;;;4.72;;
79126;SDS011;68528;48.814;8.904;2023-10-19T01:15:54;8.00;;;4.63;;
79126;SDS011;68528;48.814;8.904;2023-10-19T01:18:20;7.10;;;4.82;;
79126;SDS011;68528;48.814;8.904;2023-10-19T01:21:11;10.75;;;5.47;;
79126;SDS011;68528;48.814;8.904;2023-10-19T01:23:37;8.30;;;4.43;;
79126;SDS011;68528;48.814;8.904;2023-10-19T01:26:41;5.72;;;4.18;;
79126;SDS011;68528;48.814;8.904;2023-10-19T01:29:19;5.97;;;3.97;;
79126;SDS011;68528;48.814;8.904;2023-10-19T01:31:51;10.35;;;4.60;;
79126;SDS011;68528;48.814;8.904;2023-10-19T01:34:21;7.15;;;4.25;;
79126;SDS011;68528;48.814;8.904;2023-10-19T01:36:46;6.22;;;4.30;;
79126;SDS011;68528;48.814;8.904;2023-10-19T01:39:15;8.30;;;3.97;;
79126;SDS011;68528;48.814;8.904;2023-10-19T01:41:52;7.90;;;4.55;;
79126;SDS011;68528;48.814;8.904;2023-10-19T02:07:13;6.93;;;3.97;;
79126;SDS011;68528;48.814;8.904;2023-10-19T02:09:42;7.82;;;3.78;;
79126;SDS011;68528;48.814;8.904;2023-10-19T02:12:08;5.88;;;3.65;;
79126;SDS011;68528;48.814;8.904;2023-10-19T02:14:35;8.25;;;4.18;;
79126;SDS011;68528;48.814;8.904;2023-10-19T02:17:02;6.10;;;3.83;;
79126;SDS011;68528;48.814;8.904;2023-10-19T02:19:34;6.50;;;3.80;;
79126;SDS011;68528;48.814;8.904;2023-10-19T02:25:29;5.18;;;3.67;;
79126;SDS011;68528;48.814;8.904;2023-10-19T02:27:56;6.57;;;3.25;;
79126;SDS011;68528;48.814;8.904;2023-10-19T02:30:21;5.07;;;3.73;;
79126;SDS011;68528;48.814;8.904;2023-10-19T02:32:49;6.13;;;3.90;;
79126;SDS011;68528;48.814;8.904;2023-10-19T02:35:15;29.00;;;5.35;;
79126;SDS011;68528;48.814;8.904;2023-10-19T02:37:47;6.33;;;4.20;;
79126;SDS011;68528;48.814;8.904;2023-10-19T02:43:48;6.13;;;3.40;;
79126;SDS011;68528;48.814;8.904;2023-10-19T02:46:53;6.18;;;3.42;;
79126;SDS011;68528;48.814;8.904;2023-10-19T02:49:23;7.03;;;3.78;;
79126;SDS011;68528;48.814;8.904;2023-10-19T02:51:51;4.60;;;3.63;;
79126;SDS011;68528;48.814;8.904;2023-10-19T02:54:19;7.45;;;3.83;;
79126;SDS011;68528;48.814;8.904;2023-10-19T02:56:47;6.53;;;3.55;;
79126;SDS011;68528;48.814;8.904;2023-10-19T02:59:52;8.43;;;4.30;;
79126;SDS011;68528;48.814;8.904;2023-10-19T03:02:30;7.13;;;4.03;;
79126;SDS011;68528;48.814;8.904;2023-10-19T03:05:07;5.07;;;3.47;;
79126;SDS011;68528;48.814;8.904;2023-10-19T03:07:40;5.50;;;3.50;;
79126;SDS011;68528;48.814;8.904;2023-10-19T03:10:08;6.40;;;3.53;;
79126;SDS011;68528;48.814;8.904;2023-10-19T03:12:55;7.40;;;4.13;;
79126;SDS011;68528;48.814;8.904;2023-10-19T03:18:26;6.25;;;4.40;;
79126;SDS011;68528;48.814;8.904;2023-10-19T03:21:12;9.82;;;5.32;;
79126;SDS011;68528;48.814;8.904;2023-10-19T03:23:38;7.18;;;4.88;;
79126;SDS011;68528;48.814;8.904;2023-10-19T03:26:06;7.82;;;4.72;;
79126;SDS011;68528;48.814;8.904;2023-10-19T03:28:49;9.82;;;5.57;;
79126;SDS011;68528;48.814;8.904;2023-10-19T03:31:20;10.02;;;4.82;;
79126;SDS011;68528;48.814;8.904;2023-10-19T03:33:52;7.97;;;4.70;;
79126;SDS011;68528;48.814;8.904;2023-10-19T03:39:45;11.32;;;4.97;;
79126;SDS011;68528;48.814;8.904;2023-10-19T03:42:11;8.38;;;4.25;;
79126;SDS011;68528;48.814;8.904;2023-10-19T03:44:39;7.35;;;4.50;;
79126;SDS011;68528;48.814;8.904;2023-10-19T03:47:13;8.15;;;4.53;;
79126;SDS011;68528;48.814;8.904;2023-10-19T03:49:45;8.98;;;4.68;;
79126;SDS011;68528;48.814;8.904;2023-10-19T03:55:24;8.13;;;4.70;;
79126;SDS011;68528;48.814;8.904;2023-10-19T03:58:01;10.02;;;5.68;;
79126;SDS011;68528;48.814;8.904;2023-10-19T04:00:47;7.90;;;5.45;;
79126;SDS011;68528;48.814;8.904;2023-10-19T04:03:14;10.23;;;5.60;;
79126;SDS011;68528;48.814;8.904;2023-10-19T04:05:39;6.22;;;4.47;;
79126;SDS011;68528;48.814;8.904;2023-10-19T04:08:06;7.00;;;4.65;;
79126;SDS011;68528;48.814;8.904;2023-10-19T04:10:50;9.93;;;4.35;;
79126;SDS011;68528;48.814;8.904;2023-10-19T04:14:00;10.48;;;4.22;;
79126;SDS011;68528;48.814;8.904;2023-10-19T04:16:31;11.73;;;4.53;;
79126;SDS011;68528;48.814;8.904;2023-10-19T04:19:01;14.63;;;5.43;;
79126;SDS011;68528;48.814;8.904;2023-10-19T04:21:29;14.77;;;5.45;;
79126;SDS011;68528;48.814;8.904;2023-10-19T04:23:55;12.23;;;5.07;;
79126;SDS011;68528;48.814;8.904;2023-10-19T04:26:22;12.88;;;5.85;;
79126;SDS011;68528;48.814;8.904;2023-10-19T04:28:58;9.93;;;5.03;;
79126;SDS011;68528;48.814;8.904;2023-10-19T04:32:08;9.05;;;4.85;;
79126;SDS011;68528;48.814;8.904;2023-10-19T04:35:12;9.15;;;4.97;;
79126;SDS011;68528;48.814;8.904;2023-10-19T04:37:59;12.27;;;5.00;;
79126;SDS011;68528;48.814;8.904;2023-10-19T04:40:47;7.93;;;4.90;;
79126;SDS011;68528;48.814;8.904;2023-10-19T04:43:12;8.40;;;4.67;;
79126;SDS011;68528;48.814;8.904;2023-10-19T04:45:42;7.38;;;4.25;;
79126;SDS011;68528;48.814;8.904;2023-10-19T04:51:48;8.90;;;4.10;;
79126;SDS011;68528;48.814;8.904;2023-10-19T04:54:13;9.37;;;4.10;;
79126;SDS011;68528;48.814;8.904;2023-10-19T04:56:50;6.97;;;3.63;;
79126;SDS011;68528;48.814;8.904;2023-10-19T04:59:17;5.38;;;3.78;;
79126;SDS011;68528;48.814;8.904;2023-10-19T05:01:43;7.40;;;3.87;;
79126;SDS011;68528;48.814;8.904;2023-10-19T05:04:08;8.35;;;6.07;;
79126;SDS011;68528;48.814;8.904;2023-10-19T05:07:02;24.15;;;13.90;;
79126;SDS011;68528;48.814;8.904;2023-10-19T05:09:39;17.00;;;10.73;;
79126;SDS011;68528;48.814;8.904;2023-10-19T05:12:13;8.18;;;5.68;;
79126;SDS011;68528;48.814;8.904;2023-10-19T05:14:39;9.85;;;5.63;;
79126;SDS011;68528;48.814;8.904;2023-10-19T05:17:06;9.88;;;5.18;;
79126;SDS011;68528;48.814;8.904;2023-10-19T05:19:34;6.93;;;4.93;;
79126;SDS011;68528;48.814;8.904;2023-10-19T05:22:18;8.77;;;4.75;;
79126;SDS011;68528;48.814;8.904;2023-10-19T05:24:43;13.02;;;6.97;;
79126;SDS011;68528;48.814;8.904;2023-10-19T05:30:24;10.40;;;4.60;;
79126;SDS011;68528;48.814;8.904;2023-10-19T05:32:55;9.35;;;4.28;;
79126;SDS011;68528;48.814;8.904;2023-10-19T05:35:24;8.73;;;4.07;;
79126;SDS011;68528;48.814;8.904;2023-10-19T05:37:51;7.47;;;3.60;;
79126;SDS011;68528;48.814;8.904;2023-10-19T05:40:16;7.10;;;3.80;;
79126;SDS011;68528;48.814;8.904;2023-10-19T05:42:43;6.18;;;3.42;;
79126;SDS011;68528;48.814;8.904;2023-10-19T05:46:05;7.32;;;3.30;;
79126;SDS011;68528;48.814;8.904;2023-10-19T05:48:38;7.95;;;4.03;;
79126;SDS011;68528;48.814;8.904;2023-10-19T05:51:03;8.40;;;3.95;;
79126;SDS011;68528;48.814;8.904;2023-10-19T05:54:09;8.15;;;5.13;;
79126;SDS011;68528;48.814;8.904;2023-10-19T05:56:34;7.65;;;4.65;;
79126;SDS011;68528;48.814;8.904;2023-10-19T06:02:02;7.07;;;4.00;;
79126;SDS011;68528;48.814;8.904;2023-10-19T06:05:05;8.43;;;4.70;;
79126;SDS011;68528;48.814;8.904;2023-10-19T06:07:32;8.50;;;4.55;;
79126;SDS011;68528;48.814;8.904;2023-10-19T06:09:57;9.03;;;5.70;;
79126;SDS011;68528;48.814;8.904;2023-10-19T06:12:25;11.40;;;4.93;;
79126;SDS011;68528;48.814;8.904;2023-10-19T06:14:52;8.82;;;5.35;;
79126;SDS011;68528;48.814;8.904;2023-10-19T06:17:20;13.07;;;7.07;;
79126;SDS011;68528;48.814;8.904;2023-10-19T06:23:23;10.77;;;4.75;;
79126;SDS011;68528;48.814;8.904;2023-10-19T06:25:49;8.83;;;4.60;;
79126;SDS011;68528;48.814;8.904;2023-10-19T06:28:16;12.43;;;5.68;;
79126;SDS011;68528;48.814;8.904;2023-10-19T06:30:41;9.18;;;5.25;;
79126;SDS011;68528;48.814;8.904;2023-10-19T06:33:07;8.45;;;5.18;;
79126;SDS011;68528;48.814;8.904;2023-10-19T06:35:33;7.10;;;4.32;;
79126;SDS011;68528;48.814;8.904;2023-10-19T06:41:30;7.30;;;4.05;;
79126;SDS011;68528;48.814;8.904;2023-10-19T06:43:54;6.70;;;4.20;;
79126;SDS011;68528;48.814;8.904;2023-10-19T06:46:22;8.70;;;4.13;;
79126;SDS011;68528;48.814;8.904;2023-10-19T06:49:08;5.88;;;3.90;;
79126;SDS011;68528;48.814;8.904;2023-10-19T06:51:33;6.82;;;3.35;;
79126;SDS011;68528;48.814;8.904;2023-10-19T06:54:02;5.27;;;3.93;;
79126;SDS011;68528;48.814;8.904;2023-10-19T06:57:05;7.53;;;4.85;;
79126;SDS011;68528;48.814;8.904;2023-10-19T07:00:16;12.18;;;8.95;;
79126;SDS011;68528;48.814;8.904;2023-10-19T07:03:07;11.32;;;7.78;;
79126;SDS011;68528;48.814;8.904;2023-10-19T07:05:32;11.90;;;7.13;;
79126;SDS011;68528;48.814;8.904;2023-10-19T07:07:58;11.80;;;5.40;;
79126;SDS011;68528;48.814;8.904;2023-10-19T07:10:24;10.23;;;5.20;;
79126;SDS011;68528;48.814;8.904;2023-10-19T07:16:10;10.57;;;4.63;;
79126;SDS011;68528;48.814;8.904;2023-10-19T07:18:40;4.03;;;3.13;;
79126;SDS011;68528;48.814;8.904;2023-10-19T07:21:10;8.32;;;4.03;;
79126;SDS011;68528;48.814;8.904;2023-10-19T07:26:05;7.55;;;3.40;;
79126;SDS011;68528;48.814;8.904;2023-10-19T07:28:31;13.48;;;4.55;;
79126;SDS011;68528;48.814;8.904;2023-10-19T07:31:03;9.00;;;4.20;;
79126;SDS011;68528;48.814;8.904;2023-10-19T07:36:55;8.73;;;4.20;;
79126;SDS011;68528;48.814;8.904;2023-10-19T07:39:20;8.95;;;4.30;;
79126;SDS011;68528;48.814;8.904;2023-10-19T07:41:47;6.80;;;3.70;;
79126;SDS011;68528;48.814;8.904;2023-10-19T07:44:13;7.65;;;3.90;;
79126;SDS011;68528;48.814;8.904;2023-10-19T07:46:38;7.13;;;4.27;;
79126;SDS011;68528;48.814;8.904;2023-10-19T07:49:03;8.17;;;3.67;;
79126;SDS011;68528;48.814;8.904;2023-10-19T07:51:46;7.88;;;3.80;;
79126;SDS011;68528;48.814;8.904;2023-10-19T07:57:02;7.38;;;4.07;;
79126;SDS011;68528;48.814;8.904;2023-10-19T07:59:33;6.50;;;4.10;;
79126;SDS011;68528;48.814;8.904;2023-10-19T08:01:59;8.95;;;4.55;;
79126;SDS011;68528;48.814;8.904;2023-10-19T08:04:27;11.88;;;4.57;;
79126;SDS011;68528;48.814;8.904;2023-10-19T08:06:53;7.47;;;3.55;;
79126;SDS011;68528;48.814;8.904;2023-10-19T08:15:15;3.30;;;2.38;;
79126;SDS011;68528;48.814;8.904;2023-10-19T08:17:41;7.95;;;2.17;;
79126;SDS011;68528;48.814;8.904;2023-10-19T08:20:06;4.53;;;2.88;;
79126;SDS011;68528;48.814;8.904;2023-10-19T08:22:34;3.35;;;2.25;;
79126;SDS011;68528;48.814;8.904;2023-10-19T08:25:01;3.78;;;1.88;;
79126;SDS011;68528;48.814;8.904;2023-10-19T08:27:32;5.55;;;2.90;;
79126;SDS011;68528;48.814;8.904;2023-10-19T08:30:45;5.30;;;1.95;;
79126;SDS011;68528;48.814;8.904;2023-10-19T08:33:35;4.00;;;2.30;;
79126;SDS011;68528;48.814;8.904;2023-10-19T08:36:04;3.22;;;2.05;;
79126;SDS011;68528;48.814;8.904;2023-10-19T08:38:29;3.50;;;2.38;;
79126;SDS011;68528;48.814;8.904;2023-10-19T08:40:54;3.57;;;2.20;;
79126;SDS011;68528;48.814;8.904;2023-10-19T08:43:19;4.07;;;2.00;;
79126;SDS011;68528;48.814;8.904;2023-10-19T08:51:39;6.15;;;2.78;;
79126;SDS011;68528;48.814;8.904;2023-10-19T08:54:05;4.70;;;1.80;;
79126;SDS011;68528;48.814;8.904;2023-10-19T08:56:31;4.60;;;2.10;;
79126;SDS011;68528;48.814;8.904;2023-10-19T08:58:59;5.30;;;2.45;;
79126;SDS011;68528;48.814;8.904;2023-10-19T09:01:26;4.97;;;2.47;;
79126;SDS011;68528;48.814;8.904;2023-10-19T09:04:03;3.75;;;1.88;;
79126;SDS011;68528;48.814;8.904;2023-10-19T09:09:36;6.78;;;3.10;;
79126;SDS011;68528;48.814;8.904;2023-10-19T09:12:06;5.25;;;2.60;;
79126;SDS011;68528;48.814;8.904;2023-10-19T09:14:32;4.32;;;2.10;;
79126;SDS011;68528;48.814;8.904;2023-10-19T09:17:01;3.60;;;2.17;;
79126;SDS011;68528;48.814;8.904;2023-10-19T09:19:44;3.47;;;1.80;;
79126;SDS011;68528;48.814;8.904;2023-10-19T09:28:13;4.00;;;2.05;;
79126;SDS011;68528;48.814;8.904;2023-10-19T09:30:39;3.53;;;1.70;;
79126;SDS011;68528;48.814;8.904;2023-10-19T09:33:08;4.05;;;2.05;;
79126;SDS011;68528;48.814;8.904;2023-10-19T09:35:35;4.65;;;1.60;;
79126;SDS011;68528;48.814;8.904;2023-10-19T09:38:03;4.43;;;1.92;;
79126;SDS011;68528;48.814;8.904;2023-10-19T09:43:37;2.42;;;1.38;;
79126;SDS011;68528;48.814;8.904;2023-10-19T09:46:40;4.40;;;2.08;;
79126;SDS011;68528;48.814;8.904;2023-10-19T09:49:07;2.65;;;1.77;;
79126;SDS011;68528;48.814;8.904;2023-10-19T09:51:33;5.82;;;1.75;;
79126;SDS011;68528;48.814;8.904;2023-10-19T09:56:32;2.67;;;1.55;;
79126;SDS011;68528;48.814;8.904;2023-10-19T09:59:23;10.77;;;2.25;;
79126;SDS011;68528;48.814;8.904;2023-10-19T10:02:13;3.40;;;1.40;;
79126;SDS011;68528;48.814;8.904;2023-10-19T10:10:41;2.45;;;1.80;;
79126;SDS011;68528;48.814;8.904;2023-10-19T10:15:57;2.75;;;1.83;;
79126;SDS011;68528;48.814;8.904;2023-10-19T10:18:26;2.30;;;1.67;;
79126;SDS011;68528;48.814;8.904;2023-10-19T10:24:45;4.38;;;1.60;;
79126;SDS011;68528;48.814;8.904;2023-10-19T10:27:18;3.28;;;1.88;;
79126;SDS011;68528;48.814;8.904;2023-10-19T10:29:54;3.22;;;2.25;;
79126;SDS011;68528;48.814;8.904;2023-10-19T10:38:31;3.40;;;2.33;;
79126;SDS011;68528;48.814;8.904;2023-10-19T10:40:58;3.22;;;1.90;;
79126;SDS011;68528;48.814;8.904;2023-10-19T10:43:23;5.10;;;2.72;;
79126;SDS011;68528;48.814;8.904;2023-10-19T10:45:49;4.22;;;2.88;;
79126;SDS011;68528;48.814;8.904;2023-10-19T10:48:16;3.30;;;2.60;;
79126;SDS011;68528;48.814;8.904;2023-10-19T10:50:41;4.80;;;2.72;;
79126;SDS011;68528;48.814;8.904;2023-10-19T10:53:13;5.72;;;2.88;;
79126;SDS011;68528;48.814;8.904;2023-10-19T10:55:43;4.70;;;2.47;;
79126;SDS011;68528;48.814;8.904;2023-10-19T10:58:17;4.35;;;2.40;;
79126;SDS011;68528;48.814;8.904;2023-10-19T11:01:01;2.40;;;1.95;;
79126;SDS011;68528;48.814;8.904;2023-10-19T11:03:27;4.47;;;2.80;;
79126;SDS011;68528;48.814;8.904;2023-10-19T11:05:55;3.25;;;1.98;;
79126;SDS011;68528;48.814;8.904;2023-10-19T11:08:20;3.22;;;1.98;;
79126;SDS011;68528;48.814;8.904;2023-10-19T11:10:49;2.97;;;1.90;;
79126;SDS011;68528;48.814;8.904;2023-10-19T11:13:15;5.67;;;1.40;;
79126;SDS011;68528;48.814;8.904;2023-10-19T11:16:03;4.45;;;1.23;;
79126;SDS011;68528;48.814;8.904;2023-10-19T11:20:54;2.90;;;1.80;;
79126;SDS011;68528;48.814;8.904;2023-10-19T11:23:23;2.78;;;1.65;;
79126;SDS011;68528;48.814;8.904;2023-10-19T11:25:59;3.42;;;1.75;;
79126;SDS011;68528;48.814;8.904;2023-10-19T11:28:24;5.47;;;1.93;;
79126;SDS011;68528;48.814;8.904;2023-10-19T11:37:06;4.28;;;2.10;;
79126;SDS011;68528;48.814;8.904;2023-10-19T11:39:33;6.05;;;2.20;;
79126;SDS011;68528;48.814;8.904;2023-10-19T11:42:01;5.47;;;2.03;;
79126;SDS011;68528;48.814;8.904;2023-10-19T11:48:20;2.58;;;1.48;;
79126;SDS011;68528;48.814;8.904;2023-10-19T11:54:39;2.05;;;1.73;;
79126;SDS011;68528;48.814;8.904;2023-10-19T11:59:53;4.37;;;1.73;;
79126;SDS011;68528;48.814;8.904;2023-10-19T12:02:18;5.85;;;1.70;;
79126;SDS011;68528;48.814;8.904;2023-10-19T12:04:44;2.28;;;1.80;;
79126;SDS011;68528;48.814;8.904;2023-10-19T12:07:46;2.90;;;1.98;;
79126;SDS011;68528;48.814;8.904;2023-10-19T12:13:27;3.67;;;2.08;;
79126;SDS011;68528;48.814;8.904;2023-10-19T12:15:54;3.95;;;1.98;;
79126;SDS011;68528;48.814;8.904;2023-10-19T12:18:31;4.90;;;2.38;;
79126;SDS011;68528;48.814;8.904;2023-10-19T12:20:56;4.57;;;2.40;;
79126;SDS011;68528;48.814;8.904;2023-10-19T12:23:29;3.20;;;2.40;;
79126;SDS011;68528;48.814;8.904;2023-10-19T12:26:44;4.03;;;2.53;;
79126;SDS011;68528;48.814;8.904;2023-10-19T12:32:14;3.78;;;2.72;;
79126;SDS011;68528;48.814;8.904;2023-10-19T12:34:41;5.22;;;3.13;;
79126;SDS011;68528;48.814;8.904;2023-10-19T12:37:07;6.35;;;4.45;;
79126;SDS011;68528;48.814;8.904;2023-10-19T12:39:35;5.18;;;3.40;;
79126;SDS011;68528;48.814;8.904;2023-10-19T12:42:16;5.75;;;3.58;;
79126;SDS011;68528;48.814;8.904;2023-10-19T12:44:41;6.75;;;3.70;;
79126;SDS011;68528;48.814;8.904;2023-10-19T12:50:25;10.90;;;4.38;;
79126;SDS011;68528;48.814;8.904;2023-10-19T12:52:50;5.97;;;4.43;;
79126;SDS011;68528;48.814;8.904;2023-10-19T12:55:16;6.87;;;5.13;;
79126;SDS011;68528;48.814;8.904;2023-10-19T12:57:42;9.90;;;3.90;;
79126;SDS011;68528;48.814;8.904;2023-10-19T13:00:07;4.55;;;3.45;;
79126;SDS011;68528;48.814;8.904;2023-10-19T13:09:19;5.50;;;3.22;;
79126;SDS011;68528;48.814;8.904;2023-10-19T13:11:47;5.03;;;3.35;;
79126;SDS011;68528;48.814;8.904;2023-10-19T13:14:17;5.28;;;2.97;;
79126;SDS011;68528;48.814;8.904;2023-10-19T13:16:42;4.60;;;2.75;;
79126;SDS011;68528;48.814;8.904;2023-10-19T13:19:08;5.17;;;3.37;;
79126;SDS011;68528;48.814;8.904;2023-10-19T13:21:42;5.95;;;3.33;;
79126;SDS011;68528;48.814;8.904;2023-10-19T13:25:01;7.55;;;3.22;;
79126;SDS011;68528;48.814;8.904;2023-10-19T13:27:34;4.13;;;2.90;;
79126;SDS011;68528;48.814;8.904;2023-10-19T13:29:59;4.67;;;2.50;;
79126;SDS011;68528;48.814;8.904;2023-10-19T13:32:28;7.33;;;2.60;;
79126;SDS011;68528;48.814;8.904;2023-10-19T13:34:53;4.18;;;2.55;;
79126;SDS011;68528;48.814;8.904;2023-10-19T13:37:18;5.67;;;2.87;;
79126;SDS011;68528;48.814;8.904;2023-10-19T13:39:56;4.63;;;3.10;;
79126;SDS011;68528;48.814;8.904;2023-10-19T13:45:31;4.57;;;2.67;;
79126;SDS011;68528;48.814;8.904;2023-10-19T13:47:56;4.45;;;3.08;;
79126;SDS011;68528;48.814;8.904;2023-10-19T13:50:23;5.65;;;3.38;;
79126;SDS011;68528;48.814;8.904;2023-10-19T13:52:59;4.70;;;2.47;;
79126;SDS011;68528;48.814;8.904;2023-10-19T13:58:08;3.10;;;2.25;;
79126;SDS011;68528;48.814;8.904;2023-10-19T14:03:29;4.47;;;2.40;;
79126;SDS011;68528;48.814;8.904;2023-10-19T14:05:55;2.88;;;2.42;;
79126;SDS011;68528;48.814;8.904;2023-10-19T14:08:21;5.90;;;2.90;;
79126;SDS011;68528;48.814;8.904;2023-10-19T14:10:47;5.05;;;2.63;;
79126;SDS011;68528;48.814;8.904;2023-10-19T14:13:12;5.57;;;2.80;;
79126;SDS011;68528;48.814;8.904;2023-10-19T14:15:40;4.63;;;2.60;;
79126;SDS011;68528;48.814;8.904;2023-10-19T14:21:30;7.28;;;2.65;;
79126;SDS011;68528;48.814;8.904;2023-10-19T14:23:56;4.80;;;2.35;;
79126;SDS011;68528;48.814;8.904;2023-10-19T14:26:21;3.85;;;2.47;;
79126;SDS011;68528;48.814;8.904;2023-10-19T14:28:47;3.30;;;2.55;;
79126;SDS011;68528;48.814;8.904;2023-10-19T14:31:23;8.98;;;4.90;;
79126;SDS011;68528;48.814;8.904;2023-10-19T14:33:49;6.40;;;4.97;;
79126;SDS011;68528;48.814;8.904;2023-10-19T14:41:52;4.95;;;3.58;;
79126;SDS011;68528;48.814;8.904;2023-10-19T14:44:18;5.35;;;3.00;;
79126;SDS011;68528;48.814;8.904;2023-10-19T14:46:43;4.50;;;3.25;;
79126;SDS011;68528;48.814;8.904;2023-10-19T14:49:08;4.40;;;2.80;;
79126;SDS011;68528;48.814;8.904;2023-10-19T14:51:33;3.97;;;2.67;;
79126;SDS011;68528;48.814;8.904;2023-10-19T14:54:00;4.13;;;3.10;;
79126;SDS011;68528;48.814;8.904;2023-10-19T14:57:09;4.70;;;2.13;;
79126;SDS011;68528;48.814;8.904;2023-10-19T14:59:53;6.78;;;2.80;;
79126;SDS011;68528;48.814;8.904;2023-10-19T15:02:18;16.25;;;6.00;;
79126;SDS011;68528;48.814;8.904;2023-10-19T15:04:48;3.53;;;2.83;;
79126;SDS011;68528;48.814;8.904;2023-10-19T15:07:14;6.93;;;3.15;;
79126;SDS011;68528;48.814;8.904;2023-10-19T15:09:39;5.50;;;3.10;;
79126;SDS011;68528;48.814;8.904;2023-10-19T15:12:23;15.93;;;3.20;;
79126;SDS011;68528;48.814;8.904;2023-10-19T15:17:46;7.90;;;3.80;;
79126;SDS011;68528;48.814;8.904;2023-10-19T15:20:15;6.13;;;4.00;;
79126;SDS011;68528;48.814;8.904;2023-10-19T15:22:41;4.15;;;3.28;;
79126;SDS011;68528;48.814;8.904;2023-10-19T15:25:07;5.72;;;3.42;;
79126;SDS011;68528;48.814;8.904;2023-10-19T15:27:33;5.03;;;3.92;;
79126;SDS011;68528;48.814;8.904;2023-10-19T15:33:16;7.55;;;3.25;;
79126;SDS011;68528;48.814;8.904;2023-10-19T15:36:07;4.28;;;3.00;;
79126;SDS011;68528;48.814;8.904;2023-10-19T15:38:36;6.45;;;4.10;;
79126;SDS011;68528;48.814;8.904;2023-10-19T15:41:01;6.37;;;3.93;;
79126;SDS011;68528;48.814;8.904;2023-10-19T15:43:26;5.63;;;3.60;;
79126;SDS011;68528;48.814;8.904;2023-10-19T15:45:56;7.18;;;4.30;;
79126;SDS011;68528;48.814;8.904;2023-10-19T15:48:28;6.65;;;3.72;;
79126;SDS011;68528;48.814;8.904;2023-10-19T15:53:56;7.30;;;3.92;;
79126;SDS011;68528;48.814;8.904;2023-10-19T15:56:21;9.80;;;4.57;;
79126;SDS011;68528;48.814;8.904;2023-10-19T15:58:47;13.68;;;4.97;;
79126;SDS011;68528;48.814;8.904;2023-10-19T16:01:13;8.82;;;3.63;;
79126;SDS011;68528;48.814;8.904;2023-10-19T16:03:39;7.68;;;4.60;;
79126;SDS011;68528;48.814;8.904;2023-10-19T16:12:23;9.40;;;3.67;;
79126;SDS011;68528;48.814;8.904;2023-10-19T16:14:48;5.32;;;3.17;;
79126;SDS011;68528;48.814;8.904;2023-10-19T16:17:13;4.73;;;3.00;;
79126;SDS011;68528;48.814;8.904;2023-10-19T16:19:40;5.90;;;3.70;;
79126;SDS011;68528;48.814;8.904;2023-10-19T16:22:06;5.55;;;3.58;;
79126;SDS011;68528;48.814;8.904;2023-10-19T16:33:06;9.90;;;5.03;;
79126;SDS011;68528;48.814;8.904;2023-10-19T16:35:32;6.90;;;3.97;;
79126;SDS011;68528;48.814;8.904;2023-10-19T16:37:57;7.75;;;4.78;;
79126;SDS011;68528;48.814;8.904;2023-10-19T16:40:22;10.57;;;6.23;;
79126;SDS011;68528;48.814;8.904;2023-10-19T16:42:47;8.90;;;6.07;;
79126;SDS011;68528;48.814;8.904;2023-10-19T16:45:28;8.13;;;6.40;;
79126;SDS011;68528;48.814;8.904;2023-10-19T16:47:54;9.05;;;5.20;;
79126;SDS011;68528;48.814;8.904;2023-10-19T16:53:39;6.00;;;3.85;;
79126;SDS011;68528;48.814;8.904;2023-10-19T16:56:05;5.35;;;3.42;;
79126;SDS011;68528;48.814;8.904;2023-10-19T16:58:30;4.97;;;4.10;;
79126;SDS011;68528;48.814;8.904;2023-10-19T17:00:56;6.90;;;4.07;;
79126;SDS011;68528;48.814;8.904;2023-10-19T17:06:39;7.45;;;4.30;;
79126;SDS011;68528;48.814;8.904;2023-10-19T17:09:10;6.68;;;4.50;;
79126;SDS011;68528;48.814;8.904;2023-10-19T17:11:56;5.50;;;4.03;;
79126;SDS011;68528;48.814;8.904;2023-10-19T17:14:21;23.00;;;11.48;;
79126;SDS011;68528;48.814;8.904;2023-10-19T17:16:50;10.40;;;6.55;;
79126;SDS011;68528;48.814;8.904;2023-10-19T17:19:15;7.65;;;5.70;;
79126;SDS011;68528;48.814;8.904;2023-10-19T17:31:21;13.98;;;9.73;;
79126;SDS011;68528;48.814;8.904;2023-10-19T17:33:46;7.10;;;5.55;;
79126;SDS011;68528;48.814;8.904;2023-10-19T17:36:12;5.45;;;4.68;;
79126;SDS011;68528;48.814;8.904;2023-10-19T17:41:59;10.95;;;6.88;;
79126;SDS011;68528;48.814;8.904;2023-10-19T17:44:43;8.65;;;6.25;;
79126;SDS011;68528;48.814;8.904;2023-10-19T17:47:09;11.85;;;9.98;;
79126;SDS011;68528;48.814;8.904;2023-10-19T17:49:34;6.90;;;5.65;;
79126;SDS011;68528;48.814;8.904;2023-10-19T17:52:00;8.47;;;5.47;;
79126;SDS011;68528;48.814;8.904;2023-10-19T17:54:25;5.38;;;4.35;;
79126;SDS011;68528;48.814;8.904;2023-10-19T17:56:51;8.52;;;6.20;;
79126;SDS011;68528;48.814;8.904;2023-10-19T17:59:37;6.05;;;4.65;;
79126;SDS011;68528;48.814;8.904;2023-10-19T18:13:14;7.53;;;5.07;;
79126;SDS011;68528;48.814;8.904;2023-10-19T18:25:03;9.25;;;5.82;;
79126;SDS011;68528;48.814;8.904;2023-10-19T18:27:29;17.63;;;10.48;;
79126;SDS011;68528;48.814;8.904;2023-10-19T18:29:55;18.23;;;11.35;;
79126;SDS011;68528;48.814;8.904;2023-10-19T18:32:21;17.58;;;10.90;;
79126;SDS011;68528;48.814;8.904;2023-10-19T18:40:58;27.90;;;13.27;;
79126;SDS011;68528;48.814;8.904;2023-10-19T18:43:24;30.50;;;17.50;;
79126;SDS011;68528;48.814;8.904;2023-10-19T18:45:50;15.37;;;9.20;;
79126;SDS011;68528;48.814;8.904;2023-10-19T18:48:15;17.77;;;11.55;;
79126;SDS011;68528;48.814;8.904;2023-10-19T18:50:40;17.77;;;9.98;;
79126;SDS011;68528;48.814;8.904;2023-10-19T18:59:05;11.13;;;6.22;;
79126;SDS011;68528;48.814;8.904;2023-10-19T19:01:31;11.07;;;5.35;;
79126;SDS011;68528;48.814;8.904;2023-10-19T19:03:56;9.27;;;5.10;;
79126;SDS011;68528;48.814;8.904;2023-10-19T19:06:22;10.82;;;5.15;;
79126;SDS011;68528;48.814;8.904;2023-10-19T19:08:47;6.33;;;4.90;;
79126;SDS011;68528;48.814;8.904;2023-10-19T19:14:16;9.30;;;4.90;;
79126;SDS011;68528;48.814;8.904;2023-10-19T19:16:44;7.13;;;5.93;;
79126;SDS011;68528;48.814;8.904;2023-10-19T19:19:11;7.05;;;5.10;;
79126;SDS011;68528;48.814;8.904;2023-10-19T19:21:38;9.13;;;5.50;;
79126;SDS011;68528;48.814;8.904;2023-10-19T19:24:06;10.38;;;6.18;;
79126;SDS011;68528;48.814;8.904;2023-10-19T19:26:32;12.65;;;8.90;;